createdAt,value
2019-04-06T00:01:58.597Z,81.81
2019-04-06T00:04:24.791Z,81.89
2019-04-06T00:06:51.099Z,82.22
2019-04-06T00:09:17.414Z,82.27
2019-04-06T00:11:43.612Z,82.45
2019-04-06T00:14:09.942Z,82.38
2019-04-06T00:16:36.221Z,82.31
2019-04-06T00:19:02.513Z,82.28
2019-04-06T00:21:28.703Z,82.41
2019-04-06T00:23:54.808Z,82.36
2019-04-06T00:26:21.026Z,81.91
2019-04-06T00:28:47.245Z,81.90
2019-04-06T00:31:24.518Z,82.13
2019-04-06T00:33:50.855Z,81.91
2019-04-06T00:36:17.038Z,82.34
2019-04-06T00:38:43.227Z,82.50
2019-04-06T00:41:09.524Z,82.45
2019-04-06T00:43:35.804Z,82.64
2019-04-06T00:46:02.122Z,82.69
2019-04-06T00:48:28.245Z,82.59
2019-04-06T00:50:54.331Z,82.38
2019-04-06T00:53:20.603Z,82.42
2019-04-06T00:55:55.136Z,82.40
2019-04-06T00:58:14.723Z,82.36
2019-04-06T01:00:40.989Z,82.40
2019-04-06T01:03:07.141Z,82.37
2019-04-06T01:05:33.255Z,82.02
2019-04-06T01:07:59.384Z,81.98
2019-04-06T01:10:25.671Z,81.90
2019-04-06T01:12:51.978Z,82.08
2019-04-06T01:15:18.387Z,81.91
2019-04-06T01:17:44.788Z,82.11
2019-04-06T01:20:11.251Z,81.92
2019-04-06T01:22:37.433Z,81.99
2019-04-06T01:25:05.424Z,81.63
2019-04-06T01:27:31.516Z,81.62
2019-04-06T01:29:57.614Z,81.51
2019-04-06T01:32:23.849Z,81.35
2019-04-06T01:34:51.212Z,81.46
2019-04-06T01:37:17.394Z,81.34
2019-04-06T01:39:43.558Z,81.34
2019-04-06T01:42:09.788Z,81.18
2019-04-06T01:44:36.094Z,81.05
2019-04-06T01:47:02.473Z,81.32
2019-04-06T01:49:28.604Z,81.03
2019-04-06T01:51:54.695Z,80.98
2019-04-06T01:54:20.792Z,81.05
2019-04-06T01:56:46.892Z,81.19
2019-04-06T01:59:13.088Z,81.39
2019-04-06T02:01:41.170Z,81.37
2019-04-06T02:04:07.385Z,81.20
2019-04-06T02:06:33.579Z,81.36
2019-04-06T02:08:59.643Z,81.02
2019-04-06T02:11:25.850Z,80.74
2019-04-06T02:13:51.961Z,81.29
2019-04-06T02:16:18.072Z,80.74
2019-04-06T02:18:44.314Z,80.80
2019-04-06T02:21:10.466Z,80.70
2019-04-06T02:23:36.681Z,80.34
2019-04-06T02:26:03.955Z,80.15
2019-04-06T02:28:30.046Z,80.22
2019-04-06T02:31:13.177Z,80.71
2019-04-06T02:33:50.194Z,80.82
2019-04-06T02:36:18.178Z,81.60
2019-04-06T02:39:02.796Z,81.86
2019-04-06T02:41:36.045Z,81.77
2019-04-06T02:44:02.334Z,81.71
2019-04-06T02:46:30.972Z,81.72
2019-04-06T02:48:56.542Z,81.46
2019-04-06T02:51:23.726Z,81.80
2019-04-06T02:53:49.859Z,81.26
2019-04-06T02:56:15.919Z,81.22
2019-04-06T02:58:42.195Z,81.29
2019-04-06T03:01:08.293Z,80.60
2019-04-06T03:03:34.590Z,81.07
2019-04-06T03:06:00.867Z,81.24
2019-04-06T03:08:27.061Z,81.50
2019-04-06T03:10:53.403Z,81.55
2019-04-06T03:13:19.693Z,81.40
2019-04-06T03:15:46.027Z,81.41
2019-04-06T03:18:12.122Z,81.50
2019-04-06T03:20:38.390Z,81.70
2019-04-06T03:23:04.606Z,81.80
2019-04-06T03:25:30.715Z,81.80
2019-04-06T03:27:56.787Z,81.38
2019-04-06T03:30:23.014Z,81.12
2019-04-06T03:32:49.250Z,81.33
2019-04-06T03:35:15.451Z,81.45
2019-04-06T03:37:41.617Z,81.46
2019-04-06T03:40:08.044Z,81.75
2019-04-06T03:42:34.136Z,81.77
2019-04-06T03:45:00.227Z,81.23
2019-04-06T03:47:26.328Z,81.35
2019-04-06T03:49:52.528Z,81.11
2019-04-06T03:52:18.637Z,80.69
2019-04-06T03:54:44.712Z,80.69
2019-04-06T03:57:15.874Z,81.21
2019-04-06T03:59:39.133Z,81.33
2019-04-06T04:02:05.311Z,81.61
2019-04-06T04:04:31.439Z,81.40
2019-04-06T04:06:57.588Z,81.38
2019-04-06T04:09:23.836Z,81.29
2019-04-06T04:11:49.973Z,81.41
2019-04-06T04:14:16.051Z,80.97
2019-04-06T04:16:42.195Z,81.20
2019-04-06T04:19:09.460Z,81.29
2019-04-06T04:21:35.561Z,81.66
2019-04-06T04:24:01.941Z,81.19
2019-04-06T04:26:28.132Z,81.13
2019-04-06T04:28:54.266Z,81.30
2019-04-06T04:31:20.338Z,81.32
2019-04-06T04:33:46.435Z,81.02
2019-04-06T04:36:12.736Z,80.69
2019-04-06T04:38:38.916Z,80.30
2019-04-06T04:41:05.311Z,80.56
2019-04-06T04:43:31.430Z,80.58
2019-04-06T04:45:57.674Z,80.65
2019-04-06T04:48:23.972Z,81.00
2019-04-06T04:50:50.268Z,80.70
2019-04-06T04:53:16.440Z,80.72
2019-04-06T04:55:42.518Z,80.84
2019-04-06T04:58:08.647Z,80.72
2019-04-06T05:00:34.729Z,80.63
2019-04-06T05:03:01.149Z,80.94
2019-04-06T05:05:27.429Z,81.06
2019-04-06T05:07:53.525Z,81.29
2019-04-06T05:10:19.734Z,80.94
2019-04-06T05:12:45.938Z,81.03
2019-04-06T05:15:21.574Z,81.14
2019-04-06T05:17:47.686Z,80.92
2019-04-06T05:20:13.973Z,81.28
2019-04-06T05:22:40.331Z,81.32
2019-04-06T05:25:06.958Z,81.36
2019-04-06T05:27:33.341Z,81.13
2019-04-06T05:29:59.445Z,80.97
2019-04-06T05:32:25.668Z,80.75
2019-04-06T05:34:51.863Z,80.85
2019-04-06T05:37:17.972Z,80.85
2019-04-06T05:39:44.601Z,80.73
2019-04-06T05:42:10.759Z,80.54
2019-04-06T05:44:37.061Z,80.57
2019-04-06T05:47:03.310Z,80.37
2019-04-06T05:49:29.698Z,80.65
2019-04-06T05:51:56.282Z,80.55
2019-04-06T05:54:22.387Z,80.12
2019-04-06T05:56:48.670Z,79.76
2019-04-06T05:59:14.793Z,79.28
2019-04-06T06:01:41.060Z,78.88
2019-04-06T06:04:10.364Z,79.34
2019-04-06T06:06:35.427Z,79.22
2019-04-06T06:09:01.658Z,79.06
2019-04-06T06:11:28.550Z,78.92
2019-04-06T06:13:54.681Z,78.31
2019-04-06T06:16:20.764Z,78.35
2019-04-06T06:18:46.861Z,77.69
2019-04-06T06:21:14.235Z,78.04
2019-04-06T06:23:40.315Z,78.07
2019-04-06T06:26:08.370Z,77.97
2019-04-06T06:28:34.583Z,77.66
2019-04-06T06:31:00.774Z,77.70
2019-04-06T06:33:26.903Z,77.27
2019-04-06T06:35:53.114Z,77.06
2019-04-06T06:38:19.320Z,76.81
2019-04-06T06:40:45.676Z,76.55
2019-04-06T06:43:11.934Z,76.10
2019-04-06T06:45:38.205Z,75.97
2019-04-06T06:48:04.325Z,76.55
2019-04-06T06:50:30.532Z,76.38
2019-04-06T06:52:56.701Z,76.37
2019-04-06T06:55:23.025Z,76.84
2019-04-06T06:57:49.103Z,76.25
2019-04-06T07:00:15.407Z,76.04
2019-04-06T07:02:41.890Z,75.75
2019-04-06T07:05:08.195Z,76.11
2019-04-06T07:07:34.300Z,75.50
2019-04-06T07:10:05.935Z,75.37
2019-04-06T07:12:28.603Z,75.59
2019-04-06T07:14:54.862Z,75.13
2019-04-06T07:17:21.151Z,75.31
2019-04-06T07:19:47.278Z,74.91
2019-04-06T07:22:13.470Z,75.02
2019-04-06T07:24:39.557Z,75.00
2019-04-06T07:27:05.867Z,75.31
2019-04-06T07:29:32.250Z,75.01
2019-04-06T07:31:59.561Z,75.36
2019-04-06T07:34:25.669Z,75.51
2019-04-06T07:36:51.822Z,75.02
2019-04-06T07:39:17.923Z,74.98
2019-04-06T07:41:44.343Z,74.74
2019-04-06T07:44:10.515Z,74.63
2019-04-06T07:46:36.637Z,74.57
2019-04-06T07:49:09.128Z,74.24
2019-04-06T07:51:31.335Z,73.67
2019-04-06T07:53:57.469Z,73.33
2019-04-06T07:56:23.556Z,73.30
2019-04-06T07:58:50.763Z,72.92
2019-04-06T08:01:16.989Z,72.62
2019-04-06T08:03:43.156Z,71.58
2019-04-06T08:06:09.373Z,72.16
2019-04-06T08:08:35.570Z,71.25
2019-04-06T08:11:01.862Z,72.07
2019-04-06T08:13:28.206Z,70.51
2019-04-06T08:15:54.444Z,68.89
2019-04-06T08:18:20.620Z,69.33
2019-04-06T08:20:46.769Z,69.27
2019-04-06T08:23:13.041Z,67.91
2019-04-06T08:25:39.162Z,67.32
2019-04-06T08:28:05.588Z,67.91
2019-04-06T08:30:31.789Z,67.95
2019-04-06T08:32:57.993Z,68.13
2019-04-06T08:35:26.361Z,68.57
2019-04-06T08:37:52.516Z,66.33
2019-04-06T08:40:18.827Z,66.12
2019-04-06T08:42:45.317Z,67.11
2019-04-06T08:45:13.680Z,68.35
2019-04-06T08:47:39.666Z,68.52
2019-04-06T08:50:06.170Z,68.98
2019-04-06T08:52:32.272Z,67.12
2019-04-06T08:54:58.510Z,66.74
2019-04-06T08:57:24.736Z,66.48
2019-04-06T08:59:51.982Z,64.98
2019-04-06T09:02:18.811Z,64.27
2019-04-06T09:04:45.160Z,66.24
2019-04-06T09:07:11.533Z,67.50
2019-04-06T09:09:37.793Z,68.71
2019-04-06T09:12:04.039Z,66.83
2019-04-06T09:14:30.197Z,65.71
2019-04-06T09:16:56.307Z,64.04
2019-04-06T09:19:22.431Z,62.85
2019-04-06T09:21:48.681Z,63.63
2019-04-06T09:24:14.838Z,65.28
2019-04-06T09:26:41.165Z,64.56
2019-04-06T09:29:07.248Z,64.48
2019-04-06T09:31:34.333Z,63.69
2019-04-06T09:34:00.511Z,63.63
2019-04-06T09:36:26.728Z,63.65
2019-04-06T09:38:53.052Z,62.91
2019-04-06T09:41:19.226Z,62.42
2019-04-06T09:43:45.332Z,61.47
2019-04-06T09:46:17.366Z,60.59
2019-04-06T09:48:48.448Z,60.06
2019-04-06T09:51:34.872Z,61.67
2019-04-06T09:54:07.315Z,60.26
2019-04-06T09:56:48.053Z,59.96
2019-04-06T09:59:35.947Z,61.06
2019-04-06T10:02:19.370Z,59.94
2019-04-06T10:04:53.533Z,60.86
2019-04-06T10:07:36.678Z,59.62
2019-04-06T10:10:08.137Z,60.86
2019-04-06T10:12:36.153Z,60.57
2019-04-06T10:15:15.948Z,60.56
2019-04-06T10:17:45.811Z,59.30
2019-04-06T10:20:23.481Z,59.06
2019-04-06T10:22:51.495Z,60.25
2019-04-06T10:25:36.424Z,59.14
2019-04-06T10:28:07.563Z,62.04
2019-04-06T10:30:35.800Z,60.38
2019-04-06T10:33:19.123Z,61.64
2019-04-06T10:35:53.148Z,62.16
2019-04-06T10:38:21.438Z,61.84
2019-04-06T10:40:49.495Z,61.84
2019-04-06T10:43:34.149Z,64.08
2019-04-06T10:46:08.344Z,59.06
2019-04-06T10:48:53.205Z,60.46
2019-04-06T10:51:41.175Z,58.58
2019-04-06T10:54:09.577Z,60.29
2019-04-06T10:56:37.621Z,61.46
2019-04-06T10:59:17.777Z,61.46
2019-04-06T11:01:54.668Z,60.16
2019-04-06T11:04:32.831Z,58.20
2019-04-06T11:07:01.135Z,58.38
2019-04-06T11:09:31.984Z,56.93
2019-04-06T11:12:05.839Z,57.13
2019-04-06T11:14:39.857Z,56.29
2019-04-06T11:17:24.364Z,57.23
2019-04-06T11:19:55.329Z,55.29
2019-04-06T11:22:26.347Z,54.66
2019-04-06T11:24:57.606Z,55.39
2019-04-06T11:27:42.445Z,54.37
2019-04-06T11:30:17.393Z,54.05
2019-04-06T11:32:55.160Z,55.81
2019-04-06T11:35:32.425Z,55.74
2019-04-06T11:38:17.069Z,55.44
2019-04-06T11:40:57.600Z,56.11
2019-04-06T11:43:34.593Z,54.26
2019-04-06T11:46:06.190Z,54.26
2019-04-06T11:48:46.282Z,53.36
2019-04-06T11:51:14.413Z,51.86
2019-04-06T11:53:54.726Z,52.16
2019-04-06T11:56:37.773Z,52.63
2019-04-06T11:59:06.001Z,52.60
2019-04-06T12:01:50.685Z,52.10
2019-04-06T12:04:21.757Z,50.94
2019-04-06T12:06:49.856Z,50.37
2019-04-06T12:09:18.186Z,50.39
2019-04-06T12:11:52.448Z,50.75
2019-04-06T12:14:23.222Z,50.23
2019-04-06T12:17:00.015Z,49.20
2019-04-06T12:19:40.066Z,49.10
2019-04-06T12:22:23.739Z,49.40
2019-04-06T12:25:08.477Z,50.49
2019-04-06T12:27:51.423Z,49.06
2019-04-06T12:30:22.560Z,49.24
2019-04-06T12:32:50.810Z,47.60
2019-04-06T12:35:21.566Z,47.85
2019-04-06T12:37:55.578Z,46.37
2019-04-06T12:40:26.749Z,46.51
2019-04-06T12:42:54.911Z,47.71
2019-04-06T12:45:23.045Z,47.42
2019-04-06T12:47:57.348Z,46.51
2019-04-06T12:50:25.524Z,47.12
2019-04-06T12:53:10.199Z,45.46
2019-04-06T12:55:38.311Z,45.50
2019-04-06T12:58:23.713Z,45.54
2019-04-06T13:00:53.646Z,44.94
2019-04-06T13:03:27.913Z,45.42
2019-04-06T13:05:56.211Z,44.14
2019-04-06T13:08:24.277Z,46.29
2019-04-06T13:10:58.291Z,44.99
2019-04-06T13:13:38.700Z,46.35
2019-04-06T13:16:12.606Z,44.72
2019-04-06T13:18:57.527Z,43.93
2019-04-06T13:21:43.876Z,44.08
2019-04-06T13:24:15.187Z,42.99
2019-04-06T13:26:43.248Z,41.69
2019-04-06T13:29:27.959Z,42.17
2019-04-06T13:31:58.677Z,44.66
2019-04-06T13:34:32.733Z,45.19
2019-04-06T13:37:12.824Z,42.89
2019-04-06T13:39:43.630Z,43.65
2019-04-06T13:42:28.178Z,43.61
2019-04-06T13:44:56.311Z,43.85
2019-04-06T13:47:27.103Z,43.40
2019-04-06T13:50:10.140Z,42.45
2019-04-06T13:52:54.805Z,42.63
2019-04-06T13:55:28.966Z,43.76
2019-04-06T13:58:03.110Z,44.10
2019-04-06T14:00:43.257Z,42.49
2019-04-06T14:03:11.349Z,43.99
2019-04-06T14:05:45.363Z,44.20
2019-04-06T14:08:30.209Z,43.82
2019-04-06T14:11:04.289Z,43.46
2019-04-06T14:13:32.465Z,43.63
2019-04-06T14:16:03.769Z,44.73
2019-04-06T14:18:32.117Z,45.11
2019-04-06T14:21:09.444Z,44.05
2019-04-06T14:23:43.245Z,43.50
2019-04-06T14:26:29.738Z,43.97
2019-04-06T14:29:07.368Z,43.66
2019-04-06T14:31:35.509Z,42.60
2019-04-06T14:34:06.402Z,43.53
2019-04-06T14:36:51.653Z,42.01
2019-04-06T14:39:25.603Z,42.87
2019-04-06T14:41:54.050Z,43.47
2019-04-06T14:44:22.240Z,41.96
2019-04-06T14:47:06.828Z,43.99
2019-04-06T14:49:44.185Z,42.86
2019-04-06T14:52:15.689Z,43.81
2019-04-06T14:54:46.965Z,41.73
2019-04-06T14:57:15.692Z,42.49
2019-04-06T14:59:46.777Z,42.54
2019-04-06T15:02:27.274Z,42.91
2019-04-06T15:05:04.405Z,43.73
2019-04-06T15:07:32.520Z,43.58
2019-04-06T15:10:06.589Z,43.44
2019-04-06T15:12:34.820Z,43.01
2019-04-06T15:15:06.288Z,41.25
2019-04-06T15:17:35.740Z,43.44
2019-04-06T15:20:21.635Z,41.00
2019-04-06T15:23:02.293Z,41.10
2019-04-06T15:25:30.351Z,43.35
2019-04-06T15:28:04.294Z,42.43
2019-04-06T15:30:32.635Z,42.55
2019-04-06T15:33:18.947Z,40.82
2019-04-06T15:36:06.290Z,40.73
2019-04-06T15:38:34.341Z,41.25
2019-04-06T15:41:02.855Z,39.60
2019-04-06T15:43:49.056Z,39.32
2019-04-06T15:46:35.741Z,39.49
2019-04-06T15:49:10.129Z,38.57
2019-04-06T15:51:44.088Z,39.63
2019-04-06T15:54:27.454Z,39.55
2019-04-06T15:56:56.084Z,38.77
2019-04-06T15:59:39.686Z,39.06
2019-04-06T16:02:07.839Z,39.17
2019-04-06T16:04:36.082Z,39.01
2019-04-06T16:07:07.292Z,39.69
2019-04-06T16:09:54.158Z,40.25
2019-04-06T16:12:39.073Z,38.65
2019-04-06T16:15:22.712Z,39.00
2019-04-06T16:17:57.190Z,38.64
2019-04-06T16:20:44.096Z,38.80
2019-04-06T16:23:14.897Z,38.64
2019-04-06T16:26:01.075Z,41.04
2019-04-06T16:28:47.719Z,40.89
2019-04-06T16:31:19.121Z,41.27
2019-04-06T16:33:47.259Z,41.57
2019-04-06T16:36:34.950Z,42.42
2019-04-06T16:39:09.108Z,43.71
2019-04-06T16:41:37.286Z,43.47
2019-04-06T16:44:05.965Z,43.77
2019-04-06T16:46:36.968Z,42.42
2019-04-06T16:49:11.221Z,42.90
2019-04-06T16:51:56.054Z,43.90
2019-04-06T16:54:42.430Z,43.93
2019-04-06T16:57:10.526Z,44.88
2019-04-06T16:59:38.897Z,45.29
2019-04-06T17:02:21.654Z,45.91
2019-04-06T17:04:39.993Z,46.59
2019-04-06T17:07:08.619Z,46.72
2019-04-06T17:09:43.248Z,47.27
2019-04-06T17:12:14.316Z,47.12
2019-04-06T17:14:45.026Z,47.12
2019-04-06T17:17:13.171Z,47.88
2019-04-06T17:19:50.743Z,47.98
2019-04-06T17:22:24.802Z,48.03
2019-04-06T17:25:02.038Z,48.24
2019-04-06T17:27:30.254Z,48.82
2019-04-06T17:30:07.379Z,49.02
2019-04-06T17:32:37.872Z,49.25
2019-04-06T17:35:07.428Z,49.71
2019-04-06T17:37:52.335Z,49.82
2019-04-06T17:40:23.419Z,50.27
2019-04-06T17:42:51.598Z,50.46
2019-04-06T17:45:36.209Z,51.18
2019-04-06T17:48:04.516Z,51.67
2019-04-06T17:50:32.639Z,51.87
2019-04-06T17:53:03.736Z,52.12
2019-04-06T17:55:32.266Z,52.23
2019-04-06T17:58:06.241Z,53.41
2019-04-06T18:00:40.710Z,53.45
2019-04-06T18:03:09.069Z,53.38
2019-04-06T18:05:52.147Z,54.04
2019-04-06T18:08:20.385Z,53.90
2019-04-06T18:10:58.242Z,53.68
2019-04-06T18:13:43.500Z,54.47
2019-04-06T18:16:09.990Z,54.66
2019-04-06T18:18:36.316Z,54.98
2019-04-06T18:21:03.187Z,54.91
2019-04-06T18:23:30.110Z,54.89
2019-04-06T18:25:56.734Z,55.63
2019-04-06T18:28:22.965Z,55.80
2019-04-06T18:30:51.274Z,55.25
2019-04-06T18:33:19.370Z,56.53
2019-04-06T18:35:45.614Z,56.20
2019-04-06T18:38:25.674Z,56.14
2019-04-06T18:40:52.545Z,56.17
2019-04-06T18:45:41.480Z,56.86
2019-04-06T18:48:07.868Z,56.99
2019-04-06T18:50:38.329Z,57.22
2019-04-06T18:53:02.485Z,57.77
2019-04-06T18:55:28.947Z,58.22
2019-04-06T18:57:57.064Z,57.27
2019-04-06T19:00:24.218Z,57.78
2019-04-06T19:02:50.509Z,57.97
2019-04-06T19:05:17.291Z,58.14
2019-04-06T19:07:43.676Z,57.91
2019-04-06T19:10:10.730Z,57.69
2019-04-06T19:12:36.950Z,58.32
2019-04-06T19:15:05.921Z,58.60
2019-04-06T19:17:32.257Z,58.85
2019-04-06T19:19:58.512Z,59.70
2019-04-06T19:22:25.151Z,59.36
2019-04-06T19:24:51.467Z,59.41
2019-04-06T19:27:18.271Z,59.96
2019-04-06T19:29:44.589Z,59.71
2019-04-06T19:32:10.759Z,59.76
2019-04-06T19:34:37.204Z,60.22
2019-04-06T19:37:03.861Z,60.16
2019-04-06T19:39:30.734Z,60.41
2019-04-06T19:41:57.414Z,60.91
2019-04-06T19:44:23.714Z,61.66
2019-04-06T19:46:50.425Z,61.65
2019-04-06T19:49:16.706Z,61.62
2019-04-06T19:51:43.093Z,61.70
2019-04-06T19:54:09.553Z,62.33
2019-04-06T19:56:35.868Z,62.32
2019-04-06T19:59:02.956Z,62.61
2019-04-06T20:01:29.681Z,62.63
2019-04-06T20:03:55.905Z,62.61
2019-04-06T20:06:22.214Z,62.78
2019-04-06T20:08:48.468Z,62.53
2019-04-06T20:11:14.627Z,62.89
2019-04-06T20:13:41.066Z,62.57
2019-04-06T20:16:07.458Z,62.86
2019-04-06T20:18:33.595Z,62.88
2019-04-06T20:21:00.871Z,63.02
2019-04-06T20:23:27.389Z,62.79
2019-04-06T20:25:53.754Z,62.89
2019-04-06T20:28:20.053Z,62.77
2019-04-06T20:30:47.735Z,61.98
2019-04-06T20:33:14.009Z,61.98
2019-04-06T20:35:40.572Z,62.34
2019-04-06T20:38:07.460Z,61.76
2019-04-06T20:40:33.733Z,62.42
2019-04-06T20:43:00.125Z,62.54
2019-04-06T20:45:26.822Z,62.29
2019-04-06T20:47:53.013Z,62.43
2019-04-06T20:50:19.160Z,62.51
2019-04-06T20:52:45.315Z,61.94
2019-04-06T20:55:11.623Z,61.96
2019-04-06T20:57:38.343Z,62.36
2019-04-06T21:00:07.916Z,63.49
2019-04-06T21:02:36.195Z,64.41
2019-04-06T21:05:05.552Z,63.34
2019-04-06T21:07:32.404Z,64.21
2019-04-06T21:09:58.716Z,65.45
2019-04-06T21:12:26.293Z,65.67
2019-04-06T21:14:53.700Z,65.67
2019-04-06T21:17:21.818Z,66.15
2019-04-06T21:19:48.069Z,66.50
2019-04-06T21:22:14.410Z,66.61
2019-04-06T21:24:40.723Z,68.13
2019-04-06T21:27:07.660Z,68.13
2019-04-06T21:29:34.551Z,68.43
2019-04-06T21:32:00.955Z,68.27
2019-04-06T21:34:27.265Z,68.63
2019-04-06T21:36:53.789Z,68.45
2019-04-06T21:39:20.194Z,68.57
2019-04-06T21:41:46.393Z,68.51
2019-04-06T21:44:12.853Z,68.55
2019-04-06T21:46:39.337Z,68.30
2019-04-06T21:49:06.130Z,68.90
2019-04-06T21:51:32.525Z,69.71
2019-04-06T21:53:58.766Z,69.74
2019-04-06T21:56:24.972Z,70.70
2019-04-06T21:58:51.688Z,70.85
2019-04-06T22:01:18.627Z,71.04
2019-04-06T22:03:47.342Z,71.19
2019-04-06T22:06:13.922Z,71.16
2019-04-06T22:08:40.729Z,70.75
2019-04-06T22:11:07.237Z,70.92
2019-04-06T22:13:33.560Z,71.58
2019-04-06T22:15:59.907Z,71.41
2019-04-06T22:18:26.084Z,71.58
2019-04-06T22:20:52.511Z,71.67
2019-04-06T22:23:18.728Z,70.88
2019-04-06T22:25:44.958Z,70.13
2019-04-06T22:28:11.229Z,69.74
2019-04-06T22:30:38.348Z,70.45
2019-04-06T22:33:04.899Z,71.24
2019-04-06T22:35:31.218Z,71.13
2019-04-06T22:37:57.488Z,70.43
2019-04-06T22:40:23.815Z,69.96
2019-04-06T22:42:50.373Z,70.33
2019-04-06T22:45:18.608Z,70.21
2019-04-06T22:47:45.190Z,73.55
2019-04-06T22:50:11.957Z,72.62
2019-04-06T22:52:38.390Z,73.18
2019-04-06T22:55:07.451Z,73.01
2019-04-06T22:57:33.900Z,72.54
2019-04-06T23:00:00.825Z,72.09
2019-04-06T23:02:29.186Z,71.98
2019-04-06T23:04:57.738Z,71.85
2019-04-06T23:07:25.910Z,71.91
2019-04-06T23:09:52.139Z,72.27
2019-04-06T23:12:18.484Z,71.75
2019-04-06T23:14:44.609Z,71.19
2019-04-06T23:17:11.205Z,71.96
2019-04-06T23:19:37.622Z,71.85
2019-04-06T23:22:07.081Z,72.38
2019-04-06T23:24:33.333Z,72.37
2019-04-06T23:26:59.588Z,72.56
2019-04-06T23:29:25.734Z,72.12
2019-04-06T23:31:52.146Z,72.43
2019-04-06T23:34:19.208Z,72.36
2019-04-06T23:36:46.330Z,71.89
2019-04-06T23:39:12.656Z,72.22
2019-04-06T23:41:40.896Z,72.56
2019-04-06T23:44:07.888Z,72.47
2019-04-06T23:46:35.007Z,72.76
2019-04-06T23:49:02.612Z,73.66
2019-04-06T23:51:29.312Z,73.92
2019-04-06T23:53:56.202Z,74.38
2019-04-06T23:56:22.627Z,75.31
2019-04-06T23:58:48.755Z,75.46
